Time;durP1;ratioP1;P1;durP2;ratioP2;P2;SDS_P1;SDS_P2;PMS_P1;PMS_P2;Temp;Humidity;BMP_temperature;BMP_pressure;BME280_temperature;BME280_humidity;BME280_pressure;Samples;Min_cycle;Max_cycle;Signal;HPM_P1;HPM_P2
2023/05/17 00:01:44;;;;;;;0.60;0.60;;;7.90;93.20;;;;;;5101966;28;20314;-69
2023/05/17 00:04:11;;;;;;;2.47;1.00;;;7.90;94.50;;;;;;5111060;28;21178;-70
2023/05/17 00:06:39;;;;;;;0.40;0.40;;;7.80;93.80;;;;;;5110450;28;20275;-70
2023/05/17 00:09:06;;;;;;;0.60;0.50;;;7.80;94.20;;;;;;5110389;28;20223;-70
2023/05/17 00:11:33;;;;;;;1.00;0.60;;;7.80;93.90;;;;;;5109869;28;20650;-70
2023/05/17 00:14:00;;;;;;;1.10;0.85;;;7.60;94.50;;;;;;5110474;28;20208;-70
2023/05/17 00:16:27;;;;;;;0.75;0.75;;;7.70;94.00;;;;;;5110130;28;20601;-70
2023/05/17 00:18:53;;;;;;;0.65;0.63;;;7.70;94.10;;;;;;5110470;28;20226;-70
2023/05/17 00:21:20;;;;;;;3.35;1.30;;;7.70;94.20;;;;;;5109447;28;20232;-70
2023/05/17 00:23:48;;;;;;;1.10;1.00;;;7.70;94.10;;;;;;5110051;28;20200;-70
2023/05/17 00:26:15;;;;;;;1.03;0.50;;;7.70;94.40;;;;;;5110418;28;20232;-70
2023/05/17 00:28:42;;;;;;;0.50;0.50;;;7.70;94.20;;;;;;5110377;28;20638;-70
2023/05/17 00:31:08;;;;;;;0.70;0.70;;;7.60;94.20;;;;;;5109411;28;20344;-70
2023/05/17 00:33:35;;;;;;;0.53;0.53;;;7.50;94.00;;;;;;5110109;28;20209;-71
2023/05/17 00:36:02;;;;;;;2.75;1.00;;;7.40;94.90;;;;;;5109494;28;21040;-71
2023/05/17 00:38:29;;;;;;;0.80;0.80;;;7.50;94.70;;;;;;5110309;28;20203;-71
2023/05/17 00:40:57;;;;;;;0.70;0.65;;;7.50;94.50;;;;;;5109253;28;20227;-70
2023/05/17 00:43:24;;;;;;;0.95;0.95;;;7.50;94.70;;;;;;5109743;28;20211;-70
2023/05/17 00:45:51;;;;;;;1.70;1.05;;;7.60;94.70;;;;;;5109561;28;20763;-71
2023/05/17 00:48:19;;;;;;;0.55;0.55;;;7.60;94.80;;;;;;5110193;28;20204;-71
2023/05/17 00:50:47;;;;;;;0.68;0.68;;;7.60;94.80;;;;;;5107783;28;20303;-71
2023/05/17 00:53:15;;;;;;;1.20;0.90;;;7.50;95.50;;;;;;5109509;28;20696;-71
2023/05/17 00:55:43;;;;;;;0.52;0.52;;;7.50;95.20;;;;;;5109550;28;20223;-71
2023/05/17 00:58:11;;;;;;;0.82;0.73;;;7.50;94.70;;;;;;5109676;28;20336;-70
2023/05/17 01:00:38;;;;;;;0.65;0.65;;;7.40;94.50;;;;;;5108433;28;20236;-71
2023/05/17 01:03:05;;;;;;;3.05;1.58;;;7.40;95.00;;;;;;5108943;27;20324;-70
2023/05/17 01:05:32;;;;;;;0.55;0.55;;;7.50;95.00;;;;;;5108984;27;20239;-70
2023/05/17 01:07:59;;;;;;;0.60;0.60;;;7.40;94.70;;;;;;5108200;28;20649;-70
2023/05/17 01:10:33;;;;;;;1.45;1.00;;;7.40;94.50;;;;;;5108411;28;20582;-70
2023/05/17 01:13:06;;;;;;;4.80;1.10;;;7.40;94.80;;;;;;5101890;28;20206;-70
2023/05/17 01:15:40;;;;;;;0.52;0.52;;;7.40;95.10;;;;;;5109206;28;20228;-70
2023/05/17 01:18:16;;;;;;;2.22;0.88;;;7.40;95.20;;;;;;5102345;28;20668;-70
2023/05/17 01:20:45;;;;;;;0.73;0.73;;;7.40;95.30;;;;;;5108402;28;20224;-70
2023/05/17 01:23:28;;;;;;;0.75;0.75;;;7.40;94.90;;;;;;5109395;28;20203;-70
2023/05/17 01:26:05;;;;;;;3.42;1.10;;;7.40;95.30;;;;;;5108790;28;20249;-70
2023/05/17 01:28:37;;;;;;;0.55;0.55;;;7.20;94.50;;;;;;5109026;28;20248;-70
2023/05/17 01:31:04;;;;;;;0.77;0.77;;;7.20;95.00;;;;;;5107570;28;20629;-70
2023/05/17 01:33:32;;;;;;;0.60;0.50;;;7.20;95.10;;;;;;5109124;28;20819;-70
2023/05/17 01:35:59;;;;;;;0.75;0.75;;;7.20;95.20;;;;;;5108750;28;20255;-70
2023/05/17 01:38:26;;;;;;;0.40;0.40;;;7.10;94.90;;;;;;5108029;28;20277;-70
2023/05/17 01:40:58;;;;;;;0.70;0.70;;;7.10;95.10;;;;;;5094245;28;20625;-71
2023/05/17 01:43:34;;;;;;;0.60;0.60;;;7.10;95.10;;;;;;5100643;28;20214;-71
2023/05/17 01:46:12;;;;;;;0.65;0.63;;;7.10;94.90;;;;;;5108380;27;20234;-71
2023/05/17 01:48:49;;;;;;;1.60;1.02;;;7.10;95.10;;;;;;5102235;28;20226;-71
2023/05/17 01:51:20;;;;;;;1.05;0.70;;;7.00;95.30;;;;;;5106779;28;20230;-70
2023/05/17 01:53:55;;;;;;;0.73;0.65;;;7.10;95.40;;;;;;5108842;28;20566;-71
2023/05/17 01:56:28;;;;;;;0.55;0.55;;;7.10;95.40;;;;;;5106853;28;20226;-71
2023/05/17 01:58:58;;;;;;;0.70;0.45;;;7.10;95.20;;;;;;5108651;28;20272;-70
2023/05/17 02:01:28;;;;;;;0.60;0.60;;;7.20;95.50;;;;;;5107441;28;20224;-71
2023/05/17 02:03:56;;;;;;;0.75;0.75;;;7.30;95.80;;;;;;5108492;28;20200;-70
2023/05/17 02:06:23;;;;;;;0.70;0.70;;;7.30;95.70;;;;;;5108460;28;20280;-71
2023/05/17 02:08:51;;;;;;;3.50;0.80;;;7.20;95.30;;;;;;5100094;28;20657;-71
2023/05/17 02:11:18;;;;;;;0.60;0.60;;;7.10;95.30;;;;;;5107819;28;20335;-70
2023/05/17 02:13:45;;;;;;;0.60;0.60;;;7.20;95.60;;;;;;5108777;28;20203;-71
2023/05/17 02:16:12;;;;;;;0.73;0.73;;;7.20;95.60;;;;;;5107713;28;20329;-71
2023/05/17 02:18:40;;;;;;;0.60;0.60;;;7.10;95.30;;;;;;5108228;28;20300;-71
2023/05/17 02:21:07;;;;;;;0.90;0.90;;;7.20;95.90;;;;;;5107422;28;20223;-71
2023/05/17 02:23:34;;;;;;;0.50;0.50;;;7.00;95.90;;;;;;5108095;28;20617;-70
2023/05/17 02:26:01;;;;;;;0.52;0.50;;;6.90;95.60;;;;;;5108231;28;20225;-71
2023/05/17 02:28:28;;;;;;;0.85;0.85;;;6.90;96.00;;;;;;5108262;28;20236;-71
2023/05/17 02:30:55;;;;;;;1.10;0.98;;;6.90;96.10;;;;;;5106985;28;20640;-70
2023/05/17 02:33:23;;;;;;;1.35;1.27;;;6.80;95.90;;;;;;5108058;28;20214;-71
2023/05/17 02:35:51;;;;;;;1.40;0.70;;;6.80;96.60;;;;;;5108142;28;20223;-70
2023/05/17 02:38:19;;;;;;;0.88;0.65;;;6.90;96.30;;;;;;5099528;28;20216;-70
2023/05/17 02:40:46;;;;;;;1.58;0.80;;;6.80;96.20;;;;;;5107543;28;20226;-71
2023/05/17 02:43:14;;;;;;;0.90;0.90;;;6.70;95.90;;;;;;5111898;28;20202;-71
2023/05/17 02:45:43;;;;;;;0.93;0.77;;;6.70;96.20;;;;;;5111915;28;20250;-71
2023/05/17 02:48:10;;;;;;;1.33;1.23;;;6.80;96.20;;;;;;5112212;28;20199;-71
2023/05/17 02:50:37;;;;;;;0.52;0.50;;;6.80;96.00;;;;;;5110317;28;20314;-71
2023/05/17 02:53:06;;;;;;;0.82;0.65;;;6.80;95.80;;;;;;5112506;28;20196;-71
2023/05/17 02:55:33;;;;;;;4.35;0.90;;;6.80;96.00;;;;;;5112139;28;20223;-70
2023/05/17 02:58:00;;;;;;;2.55;1.50;;;6.80;96.20;;;;;;5112247;27;20226;-70
2023/05/17 03:00:27;;;;;;;0.43;0.40;;;6.80;96.20;;;;;;5110984;28;20250;-71
2023/05/17 03:02:54;;;;;;;0.50;0.45;;;6.70;96.20;;;;;;5112068;28;20275;-71
2023/05/17 03:05:22;;;;;;;0.73;0.63;;;6.60;96.50;;;;;;5111815;28;20199;-71
2023/05/17 03:07:49;;;;;;;1.10;1.10;;;6.50;96.70;;;;;;5111859;28;20595;-71
2023/05/17 03:10:18;;;;;;;1.85;0.90;;;6.60;96.90;;;;;;5110509;28;20222;-72
2023/05/17 03:12:46;;;;;;;0.80;0.80;;;6.60;97.20;;;;;;5112106;28;20214;-71
2023/05/17 03:15:13;;;;;;;1.20;1.15;;;6.60;96.90;;;;;;5111774;28;20203;-70
2023/05/17 03:17:40;;;;;;;2.38;0.90;;;6.50;97.00;;;;;;5111392;28;20687;-70
2023/05/17 03:20:08;;;;;;;1.17;1.00;;;6.50;97.10;;;;;;5110874;28;20196;-70
2023/05/17 03:22:37;;;;;;;2.58;1.08;;;6.50;97.20;;;;;;5111457;28;20199;-70
2023/05/17 03:25:05;;;;;;;0.70;0.70;;;6.50;97.20;;;;;;5111298;28;20199;-70
2023/05/17 03:27:33;;;;;;;0.60;0.50;;;6.50;97.30;;;;;;5111682;28;20191;-70
2023/05/17 03:30:00;;;;;;;1.38;0.50;;;6.60;96.90;;;;;;5111077;28;20199;-71
2023/05/17 03:32:28;;;;;;;1.05;0.85;;;6.50;97.00;;;;;;5110885;28;20752;-71
2023/05/17 03:34:54;;;;;;;3.55;1.00;;;6.60;96.80;;;;;;5111296;27;20199;-71
2023/05/17 03:37:21;;;;;;;0.60;0.60;;;6.50;96.90;;;;;;5110843;28;20882;-71
2023/05/17 03:39:48;;;;;;;2.17;1.02;;;6.50;96.90;;;;;;5110749;28;20294;-70
2023/05/17 03:42:15;;;;;;;1.45;1.20;;;6.60;96.80;;;;;;5110659;28;20515;-70
2023/05/17 03:44:43;;;;;;;0.80;0.70;;;6.50;96.60;;;;;;5111124;28;20198;-71
2023/05/17 03:47:10;;;;;;;0.43;0.43;;;6.40;96.90;;;;;;5110803;28;20222;-70
2023/05/17 03:49:37;;;;;;;0.50;0.50;;;6.40;97.00;;;;;;5109661;28;20549;-70
2023/05/17 03:52:04;;;;;;;1.50;0.80;;;6.30;97.20;;;;;;5110043;28;20280;-71
2023/05/17 03:54:31;;;;;;;1.05;0.82;;;6.30;97.20;;;;;;5110728;28;20304;-71
2023/05/17 03:56:58;;;;;;;0.98;0.93;;;6.20;97.20;;;;;;5110828;28;20226;-71
2023/05/17 03:59:24;;;;;;;1.48;0.90;;;6.20;97.40;;;;;;5110224;28;20714;-71
2023/05/17 04:01:52;;;;;;;3.78;0.95;;;6.20;97.30;;;;;;5110639;28;20589;-71
2023/05/17 04:04:19;;;;;;;1.02;0.70;;;6.30;97.30;;;;;;5110489;28;20203;-71
2023/05/17 04:06:46;;;;;;;1.45;0.80;;;6.20;97.50;;;;;;5110606;28;20615;-71
2023/05/17 04:09:14;;;;;;;2.60;1.25;;;6.10;97.70;;;;;;5110514;28;20699;-71
2023/05/17 04:11:41;;;;;;;0.98;0.52;;;6.20;97.70;;;;;;5109887;28;20227;-70
2023/05/17 04:14:08;;;;;;;1.88;0.70;;;6.20;97.70;;;;;;5111019;28;20331;-70
2023/05/17 04:16:35;;;;;;;1.55;1.00;;;6.10;97.80;;;;;;5110353;28;20241;-70
2023/05/17 04:19:03;;;;;;;1.23;1.23;;;6.10;98.50;;;;;;5101431;28;20309;-70
2023/05/17 04:21:30;;;;;;;0.75;0.68;;;6.10;98.20;;;;;;5109767;28;20231;-70
2023/05/17 04:23:56;;;;;;;0.65;0.63;;;6.20;98.40;;;;;;5110291;28;20290;-70
2023/05/17 04:26:23;;;;;;;2.28;1.58;;;6.10;99.10;;;;;;5110016;28;20800;-70
2023/05/17 04:28:50;;;;;;;1.40;0.98;;;6.20;99.00;;;;;;5110470;28;20192;-71
2023/05/17 04:31:17;;;;;;;0.98;0.80;;;6.00;99.20;;;;;;5109094;28;20468;-70
2023/05/17 04:33:44;;;;;;;1.00;1.00;;;6.00;99.20;;;;;;5109663;28;20601;-71
2023/05/17 04:36:12;;;;;;;0.43;0.43;;;6.10;99.50;;;;;;5110161;28;20242;-69
2023/05/17 04:38:39;;;;;;;2.85;0.85;;;6.10;99.70;;;;;;5110163;28;20610;-70
2023/05/17 04:41:08;;;;;;;0.50;0.50;;;6.10;99.10;;;;;;5109084;28;20668;-70
2023/05/17 04:43:35;;;;;;;9.38;1.30;;;6.30;99.30;;;;;;5110560;28;20304;-70
2023/05/17 04:46:01;;;;;;;0.88;0.88;;;6.20;98.80;;;;;;5109395;28;20261;-70
2023/05/17 04:48:32;;;;;;;0.80;0.70;;;6.30;98.70;;;;;;5109799;28;20787;-70
2023/05/17 04:51:00;;;;;;;0.85;0.85;;;6.30;98.70;;;;;;5108138;28;20317;-70
2023/05/17 04:53:29;;;;;;;0.80;0.80;;;6.40;98.80;;;;;;5109793;28;20306;-70
2023/05/17 04:55:56;;;;;;;1.52;1.42;;;6.40;98.90;;;;;;5109535;28;20227;-70
2023/05/17 04:58:23;;;;;;;1.27;1.17;;;6.50;98.80;;;;;;5109586;27;20227;-70
2023/05/17 05:00:50;;;;;;;4.28;2.13;;;6.50;98.70;;;;;;5109007;28;20230;-70
2023/05/17 05:03:17;;;;;;;1.75;1.25;;;6.60;98.80;;;;;;5109350;28;20313;-70
2023/05/17 05:05:44;;;;;;;0.65;0.60;;;6.60;98.70;;;;;;5109012;28;20669;-70
2023/05/17 05:08:11;;;;;;;1.00;0.80;;;6.70;98.80;;;;;;5109596;27;20611;-70
2023/05/17 05:10:39;;;;;;;0.50;0.50;;;6.70;98.60;;;;;;5108542;28;20234;-70
2023/05/17 05:13:06;;;;;;;0.63;0.60;;;6.70;98.50;;;;;;5109953;28;20198;-70
2023/05/17 05:15:33;;;;;;;3.40;1.52;;;6.70;98.60;;;;;;5108738;28;20247;-70
2023/05/17 05:17:59;;;;;;;2.05;0.93;;;6.80;98.70;;;;;;5109199;28;20215;-71
2023/05/17 05:20:26;;;;;;;0.75;0.73;;;7.00;98.80;;;;;;5108515;27;20227;-70
2023/05/17 05:22:53;;;;;;;1.33;1.23;;;7.00;98.60;;;;;;5109303;28;20206;-70
2023/05/17 05:25:20;;;;;;;0.93;0.90;;;7.00;98.70;;;;;;5108981;28;20205;-70
2023/05/17 05:27:48;;;;;;;1.42;0.90;;;7.20;98.70;;;;;;5108833;28;20199;-70
2023/05/17 05:30:20;;;;;;;0.70;0.70;;;7.30;98.30;;;;;;5108159;28;20215;-70
2023/05/17 05:32:48;;;;;;;1.15;0.95;;;7.40;97.90;;;;;;5109469;28;20215;-70
2023/05/17 05:35:15;;;;;;;0.80;0.80;;;7.50;97.70;;;;;;5108422;28;20222;-70
2023/05/17 05:37:42;;;;;;;2.38;1.33;;;7.60;97.90;;;;;;5109090;28;20227;-70
2023/05/17 05:40:10;;;;;;;0.80;0.80;;;7.60;97.60;;;;;;5107535;28;20200;-70
2023/05/17 05:42:37;;;;;;;5.20;1.07;;;7.60;97.40;;;;;;5108929;28;20232;-70
2023/05/17 05:45:07;;;;;;;0.52;0.52;;;7.70;97.70;;;;;;5108971;28;20632;-70
2023/05/17 05:47:33;;;;;;;1.10;1.00;;;7.80;98.00;;;;;;5109004;28;20195;-70
2023/05/17 05:50:00;;;;;;;3.15;1.05;;;7.90;97.70;;;;;;5106644;28;20617;-70
2023/05/17 05:52:27;;;;;;;1.50;1.05;;;8.00;97.50;;;;;;5108568;28;20772;-70
2023/05/17 05:54:54;;;;;;;1.73;1.25;;;8.10;97.40;;;;;;5108136;27;20596;-72
2023/05/17 05:57:20;;;;;;;0.87;0.87;;;8.10;97.10;;;;;;5108944;28;20231;-70
2023/05/17 05:59:47;;;;;;;1.07;0.97;;;8.30;96.60;;;;;;5107949;28;20628;-70
2023/05/17 06:02:16;;;;;;;0.52;0.52;;;8.30;96.20;;;;;;5108668;28;20665;-70
2023/05/17 06:04:42;;;;;;;1.13;0.85;;;8.10;96.60;;;;;;5108263;27;20578;-71
2023/05/17 06:07:09;;;;;;;1.03;1.00;;;8.20;96.90;;;;;;5108445;28;20230;-71
2023/05/17 06:09:36;;;;;;;4.63;1.15;;;8.00;96.70;;;;;;5107247;28;21042;-70
2023/05/17 06:12:03;;;;;;;1.53;1.43;;;8.00;96.80;;;;;;5108455;28;20224;-70
2023/05/17 06:14:30;;;;;;;1.30;1.20;;;7.90;97.00;;;;;;5108466;28;20725;-70
2023/05/17 06:16:56;;;;;;;1.42;0.65;;;8.20;96.90;;;;;;5108384;28;20225;-71
2023/05/17 06:19:24;;;;;;;0.98;0.93;;;8.00;96.40;;;;;;5107946;28;20226;-72
2023/05/17 06:21:51;;;;;;;1.05;0.95;;;8.00;96.40;;;;;;5107495;28;20231;-71
2023/05/17 06:24:18;;;;;;;1.13;1.13;;;8.30;96.80;;;;;;5108534;28;20206;-69
2023/05/17 06:26:45;;;;;;;1.00;0.95;;;8.20;96.30;;;;;;5107917;28;20656;-70
2023/05/17 06:29:12;;;;;;;1.40;1.27;;;8.30;96.70;;;;;;5108372;28;20579;-70
2023/05/17 06:31:39;;;;;;;1.87;1.67;;;8.20;96.30;;;;;;5107357;28;20235;-70
2023/05/17 06:34:06;;;;;;;3.10;1.07;;;8.20;96.50;;;;;;5107956;28;20629;-70
2023/05/17 06:36:35;;;;;;;1.60;1.50;;;8.50;96.70;;;;;;5107920;28;20655;-70
2023/05/17 06:39:02;;;;;;;2.90;1.75;;;8.60;96.60;;;;;;5108016;28;20658;-71
2023/05/17 06:41:28;;;;;;;1.45;1.17;;;8.90;96.10;;;;;;5107385;28;20232;-72
2023/05/17 06:43:55;;;;;;;1.20;1.10;;;9.00;95.80;;;;;;5108158;28;20205;-71
2023/05/17 06:46:22;;;;;;;1.37;1.07;;;8.80;95.50;;;;;;5107813;28;20646;-70
2023/05/17 06:48:48;;;;;;;1.40;1.10;;;8.80;96.00;;;;;;5107904;28;21251;-71
2023/05/17 06:51:15;;;;;;;1.67;1.23;;;9.00;95.50;;;;;;5105693;28;20654;-70
2023/05/17 06:53:43;;;;;;;2.73;0.97;;;9.20;95.90;;;;;;5107994;28;20629;-70
2023/05/17 06:56:10;;;;;;;1.17;1.00;;;9.30;96.20;;;;;;5107696;28;20650;-70
2023/05/17 06:58:37;;;;;;;1.37;1.03;;;9.50;95.30;;;;;;5107614;28;21235;-71
2023/05/17 07:01:04;;;;;;;6.07;1.40;;;9.70;94.90;;;;;;5107072;28;20649;-71
2023/05/17 07:03:31;;;;;;;1.50;0.87;;;9.90;95.00;;;;;;5107688;28;20635;-71
2023/05/17 07:05:58;;;;;;;2.00;1.43;;;9.80;95.20;;;;;;5107542;28;20757;-71
2023/05/17 07:08:25;;;;;;;4.60;1.90;;;9.40;94.40;;;;;;5108088;28;20629;-71
2023/05/17 07:10:53;;;;;;;1.10;0.97;;;9.50;95.10;;;;;;5098889;28;21125;-71
2023/05/17 07:13:20;;;;;;;1.10;1.00;;;9.20;95.30;;;;;;5108007;28;20626;-71
2023/05/17 07:15:46;;;;;;;1.33;0.90;;;9.30;95.00;;;;;;5107936;28;20665;-72
2023/05/17 07:18:13;;;;;;;1.30;1.20;;;9.60;95.10;;;;;;5107674;28;20658;-72
2023/05/17 07:20:40;;;;;;;6.33;1.63;;;9.70;95.10;;;;;;5106815;28;20999;-71
2023/05/17 07:23:07;;;;;;;1.33;1.07;;;9.70;95.20;;;;;;5107693;28;20627;-71
2023/05/17 07:25:37;;;;;;;1.63;1.40;;;9.80;95.10;;;;;;5107490;28;20678;-71
2023/05/17 07:28:05;;;;;;;3.97;1.43;;;10.20;94.10;;;;;;5110175;28;21028;-70
2023/05/17 07:30:32;;;;;;;1.83;1.70;;;10.30;93.50;;;;;;5110350;28;21737;-71
2023/05/17 07:32:59;;;;;;;1.67;1.40;;;10.30;93.30;;;;;;5111327;28;20630;-71
2023/05/17 07:35:26;;;;;;;1.30;1.20;;;9.80;94.00;;;;;;5111055;28;20648;-71
2023/05/17 07:37:52;;;;;;;2.53;2.00;;;9.90;94.50;;;;;;5111540;28;20623;-71
2023/05/17 07:40:20;;;;;;;1.83;1.60;;;10.30;93.90;;;;;;5110575;28;20722;-71
2023/05/17 07:42:47;;;;;;;1.30;1.20;;;10.70;94.30;;;;;;5111110;28;20680;-71
2023/05/17 07:45:15;;;;;;;3.00;1.53;;;10.90;93.30;;;;;;5110721;28;20625;-71
2023/05/17 07:47:42;;;;;;;1.60;1.50;;;10.80;93.40;;;;;;5110902;28;20626;-71
2023/05/17 07:50:10;;;;;;;1.30;1.10;;;10.90;93.10;;;;;;5109324;28;20611;-71
2023/05/17 07:52:37;;;;;;;2.80;2.03;;;10.90;93.20;;;;;;5110775;28;20977;-71
2023/05/17 07:55:04;;;;;;;6.50;1.80;;;11.00;93.30;;;;;;5110800;28;21199;-70
2023/05/17 07:57:31;;;;;;;1.03;1.00;;;11.30;92.40;;;;;;5110706;28;20997;-71
2023/05/17 07:59:58;;;;;;;3.30;1.50;;;11.60;92.40;;;;;;5109937;28;20650;-71
2023/05/17 08:02:26;;;;;;;1.10;0.97;;;11.70;93.40;;;;;;5111094;28;20652;-70
2023/05/17 08:04:53;;;;;;;1.30;1.10;;;11.80;92.00;;;;;;5110951;28;20668;-70
2023/05/17 08:07:19;;;;;;;2.87;1.80;;;11.20;91.60;;;;;;5110286;28;20644;-72
2023/05/17 08:09:46;;;;;;;1.67;1.27;;;11.30;92.60;;;;;;5109911;28;20627;-71
2023/05/17 08:12:13;;;;;;;2.07;1.50;;;11.80;91.80;;;;;;5110576;28;20646;-70
2023/05/17 08:14:40;;;;;;;1.60;1.50;;;12.00;92.30;;;;;;5110292;28;20979;-71
2023/05/17 08:17:07;;;;;;;1.53;1.23;;;11.80;91.40;;;;;;5110641;28;20641;-71
2023/05/17 08:19:35;;;;;;;1.87;1.43;;;12.00;92.20;;;;;;5109784;28;20659;-71
2023/05/17 08:22:02;;;;;;;2.00;1.80;;;12.50;91.90;;;;;;5101983;28;20652;-71
2023/05/17 08:24:29;;;;;;;1.50;1.40;;;12.10;90.20;;;;;;5110222;28;20625;-73
2023/05/17 08:26:56;;;;;;;2.07;1.70;;;11.60;90.90;;;;;;5109803;28;20655;-70
2023/05/17 08:29:23;;;;;;;2.90;2.70;;;11.90;91.80;;;;;;5110144;28;20628;-71
2023/05/17 08:31:50;;;;;;;2.60;1.37;;;12.00;91.60;;;;;;5109756;28;20668;-71
2023/05/17 08:34:17;;;;;;;1.00;1.00;;;11.70;90.70;;;;;;5110314;28;20687;-71
2023/05/17 08:36:46;;;;;;;1.47;1.10;;;11.30;91.40;;;;;;5109979;28;20641;-71
2023/05/17 08:39:13;;;;;;;2.47;1.80;;;11.80;91.40;;;;;;5108702;28;20655;-70
2023/05/17 08:41:40;;;;;;;0.90;0.90;;;12.00;91.80;;;;;;5108530;28;20674;-71
2023/05/17 08:44:07;;;;;;;2.20;1.80;;;12.40;91.10;;;;;;5109958;28;21236;-69
2023/05/17 08:46:37;;;;;;;4.13;3.07;;;12.50;90.80;;;;;;5109822;28;20650;-69
2023/05/17 08:49:05;;;;;;;2.10;1.47;;;12.50;92.00;;;;;;5110244;28;20974;-70
2023/05/17 08:51:32;;;;;;;1.60;1.10;;;12.50;90.90;;;;;;5100359;28;20649;-70
2023/05/17 08:54:05;;;;;;;1.20;1.10;;;12.60;90.70;;;;;;5109934;28;20985;-69
2023/05/17 08:56:34;;;;;;;1.10;1.00;;;12.70;91.60;;;;;;5109478;28;20750;-69
2023/05/17 08:59:02;;;;;;;1.33;1.20;;;12.30;90.10;;;;;;5109756;28;20662;-69
2023/05/17 09:01:30;;;;;;;1.77;1.67;;;12.00;90.70;;;;;;5108501;28;21295;-69
2023/05/17 09:03:56;;;;;;;1.30;1.20;;;12.10;91.10;;;;;;5109736;28;20626;-70
2023/05/17 09:06:24;;;;;;;1.87;1.17;;;11.80;91.00;;;;;;5109170;28;20646;-67
2023/05/17 09:08:53;;;;;;;2.60;1.70;;;11.80;90.90;;;;;;5109065;28;20646;-69
2023/05/17 09:11:27;;;;;;;4.23;2.10;;;11.80;91.00;;;;;;5108731;28;20645;-69
2023/05/17 09:13:54;;;;;;;2.47;1.20;;;11.20;90.50;;;;;;5109533;28;20637;-70
2023/05/17 09:16:21;;;;;;;2.20;1.40;;;11.30;92.20;;;;;;5109118;28;20993;-69
2023/05/17 09:18:54;;;;;;;3.40;1.53;;;11.30;91.70;;;;;;5109116;28;20658;-70
2023/05/17 09:21:21;;;;;;;1.50;1.40;;;11.90;91.70;;;;;;5108398;28;20752;-70
2023/05/17 09:23:48;;;;;;;3.73;3.57;;;12.20;91.70;;;;;;5109161;28;20634;-69
2023/05/17 09:26:16;;;;;;;1.70;1.60;;;12.10;90.80;;;;;;5109083;28;20652;-69
2023/05/17 09:28:46;;;;;;;2.13;1.93;;;11.80;90.50;;;;;;5109479;28;20622;-70
2023/05/17 09:31:15;;;;;;;1.93;1.23;;;11.90;91.20;;;;;;5099791;28;20659;-69
2023/05/17 09:33:46;;;;;;;3.60;1.53;;;11.80;91.10;;;;;;5108464;28;21238;-70
2023/05/17 09:36:18;;;;;;;2.07;1.47;;;11.60;91.00;;;;;;5108999;28;20649;-69
2023/05/17 09:38:52;;;;;;;1.33;1.27;;;11.80;91.10;;;;;;5109068;28;20625;-70
2023/05/17 09:41:20;;;;;;;2.30;1.80;;;12.40;91.00;;;;;;5108126;28;20640;-68
2023/05/17 09:43:49;;;;;;;2.20;1.50;;;12.70;87.20;;;;;;5108671;28;21083;-69
2023/05/17 09:46:15;;;;;;;7.90;2.07;;;12.90;89.20;;;;;;5108184;28;20629;-68
2023/05/17 09:48:45;;;;;;;3.17;1.83;;;13.10;88.80;;;;;;5108794;28;20657;-69
2023/05/17 09:51:12;;;;;;;2.67;1.70;;;13.20;88.40;;;;;;5107045;28;20699;-68
2023/05/17 09:53:40;;;;;;;2.00;1.30;;;13.30;87.70;;;;;;5108712;28;20629;-69
2023/05/17 09:56:07;;;;;;;1.60;1.47;;;13.40;86.50;;;;;;5108497;28;20663;-68
2023/05/17 09:58:37;;;;;;;1.70;1.60;;;13.50;85.30;;;;;;5108307;28;20614;-69
2023/05/17 10:01:07;;;;;;;1.93;1.00;;;13.80;85.50;;;;;;5107968;27;20645;-70
2023/05/17 10:03:35;;;;;;;6.77;1.60;;;13.80;81.90;;;;;;5108572;28;20616;-70
2023/05/17 10:06:05;;;;;;;2.27;1.67;;;13.60;83.00;;;;;;5108274;28;21213;-68
2023/05/17 10:08:33;;;;;;;1.60;1.10;;;13.50;83.20;;;;;;5108505;28;20626;-69
2023/05/17 10:11:05;;;;;;;1.77;1.67;;;13.70;84.00;;;;;;5107290;28;20634;-68
2023/05/17 10:13:36;;;;;;;1.43;0.90;;;13.60;84.80;;;;;;5108602;28;20632;-69
2023/05/17 10:16:02;;;;;;;1.67;1.27;;;13.80;81.40;;;;;;5108416;28;20633;-70
2023/05/17 10:18:32;;;;;;;5.73;1.07;;;14.10;82.10;;;;;;5108537;28;20624;-70
2023/05/17 10:21:00;;;;;;;1.17;0.90;;;14.60;81.10;;;;;;5107287;28;20674;-70
2023/05/17 10:23:27;;;;;;;1.67;1.57;;;14.70;76.90;;;;;;5108740;28;20631;-70
2023/05/17 10:25:55;;;;;;;3.03;0.80;;;14.90;81.40;;;;;;5107415;28;20648;-69
2023/05/17 10:28:23;;;;;;;1.47;0.97;;;15.30;78.90;;;;;;5108494;28;20648;-69
2023/05/17 10:30:51;;;;;;;1.53;1.43;;;15.40;75.20;;;;;;5107197;28;20767;-70
2023/05/17 10:33:20;;;;;;;1.50;1.00;;;15.20;78.10;;;;;;5108637;28;20687;-69
2023/05/17 10:35:50;;;;;;;1.50;1.20;;;15.20;73.90;;;;;;5108078;28;21088;-70
2023/05/17 10:38:18;;;;;;;2.00;1.60;;;15.10;75.10;;;;;;5107947;28;20631;-69
2023/05/17 10:40:47;;;;;;;1.23;1.13;;;14.80;76.60;;;;;;5107118;28;20764;-70
2023/05/17 10:43:16;;;;;;;2.97;1.53;;;14.70;77.60;;;;;;5108080;28;20621;-70
2023/05/17 10:45:43;;;;;;;2.17;1.20;;;14.70;74.30;;;;;;5107881;28;21089;-70
2023/05/17 10:48:10;;;;;;;1.37;1.27;;;14.50;73.40;;;;;;5108395;28;20621;-70
2023/05/17 10:50:39;;;;;;;1.40;1.30;;;14.70;76.60;;;;;;5106122;28;20932;-70
2023/05/17 10:53:11;;;;;;;1.33;1.20;;;14.70;75.10;;;;;;5108382;28;20696;-69
2023/05/17 10:55:40;;;;;;;1.20;1.10;;;14.80;78.30;;;;;;5099757;28;20709;-70
2023/05/17 10:58:18;;;;;;;2.30;1.33;;;15.20;76.60;;;;;;5107967;28;21046;-70
2023/05/17 11:00:46;;;;;;;2.73;1.37;;;15.60;78.70;;;;;;5099095;28;20761;-68
2023/05/17 11:03:15;;;;;;;1.50;1.40;;;15.80;74.00;;;;;;5110288;28;20616;-69
2023/05/17 11:05:43;;;;;;;1.50;1.00;;;15.90;73.00;;;;;;5111925;28;20657;-68
2023/05/17 11:08:16;;;;;;;1.20;0.97;;;16.40;75.20;;;;;;5112180;28;20646;-69
2023/05/17 11:11:08;;;;;;;3.30;1.40;;;16.40;73.10;;;;;;5111372;28;20652;-69
2023/05/17 11:13:43;;;;;;;3.33;1.50;;;16.30;72.70;;;;;;5111483;28;20621;-69
2023/05/17 11:16:10;;;;;;;2.73;1.43;;;16.00;72.20;;;;;;5111429;28;20641;-69
2023/05/17 11:18:47;;;;;;;3.53;1.40;;;15.60;72.20;;;;;;5111678;28;20759;-69
2023/05/17 11:21:15;;;;;;;1.53;1.33;;;15.50;73.10;;;;;;5110909;28;20668;-69
2023/05/17 11:23:44;;;;;;;1.87;1.33;;;15.40;72.10;;;;;;5111244;28;20629;-69
2023/05/17 11:26:22;;;;;;;3.57;1.57;;;15.10;73.30;;;;;;5111541;28;20661;-68
2023/05/17 11:28:49;;;;;;;1.53;1.20;;;14.20;74.20;;;;;;5111526;28;20689;-68
2023/05/17 11:31:16;;;;;;;2.67;1.50;;;14.30;76.00;;;;;;5110563;28;20679;-69
2023/05/17 11:33:44;;;;;;;2.07;1.27;;;14.70;74.40;;;;;;5111471;28;20737;-69
2023/05/17 11:36:19;;;;;;;2.00;1.77;;;14.80;73.30;;;;;;5110979;28;20653;-68
2023/05/17 11:38:50;;;;;;;1.70;1.60;;;14.90;74.00;;;;;;5111067;28;20637;-69
2023/05/17 11:41:20;;;;;;;1.70;0.83;;;14.90;72.70;;;;;;5110181;28;20669;-69
2023/05/17 11:43:48;;;;;;;3.00;1.50;;;14.80;73.30;;;;;;5111444;28;20633;-68
2023/05/17 11:46:23;;;;;;;2.03;1.60;;;14.70;72.70;;;;;;5110777;28;21196;-69
2023/05/17 11:48:51;;;;;;;1.43;1.33;;;14.40;74.00;;;;;;5111052;28;20616;-69
2023/05/17 11:51:19;;;;;;;1.57;1.33;;;14.20;76.10;;;;;;5108838;28;20650;-68
2023/05/17 11:53:47;;;;;;;1.83;1.37;;;14.20;75.00;;;;;;5111170;28;20725;-69
2023/05/17 11:56:16;;;;;;;1.60;1.20;;;13.80;76.60;;;;;;5110781;28;20759;-68
2023/05/17 11:58:44;;;;;;;1.27;0.90;;;13.80;78.40;;;;;;5111077;28;20615;-69
2023/05/17 12:01:10;;;;;;;2.23;1.40;;;13.60;78.10;;;;;;5109889;28;20663;-69
2023/05/17 12:03:37;;;;;;;3.43;1.90;;;13.70;77.40;;;;;;5110492;27;20623;-69
2023/05/17 12:06:09;;;;;;;1.87;1.43;;;13.30;79.70;;;;;;5110495;28;20645;-69
2023/05/17 12:08:37;;;;;;;1.83;1.10;;;12.90;78.50;;;;;;5110833;28;20627;-69
2023/05/17 12:11:05;;;;;;;2.13;1.70;;;12.90;80.30;;;;;;5109812;28;21186;-69
2023/05/17 12:13:34;;;;;;;1.73;1.40;;;13.10;80.80;;;;;;5109995;27;21202;-69
2023/05/17 12:16:04;;;;;;;1.40;1.10;;;13.10;81.00;;;;;;5110706;28;21134;-69
2023/05/17 12:18:38;;;;;;;1.90;1.77;;;13.40;77.40;;;;;;5110613;28;20627;-69
2023/05/17 12:21:06;;;;;;;2.70;1.90;;;13.70;77.20;;;;;;5101986;28;20672;-69
2023/05/17 12:23:34;;;;;;;2.30;1.60;;;13.60;77.20;;;;;;5110313;28;20611;-69
2023/05/17 12:26:06;;;;;;;2.03;1.63;;;13.60;78.10;;;;;;5109988;28;20806;-69
2023/05/17 12:28:35;;;;;;;1.73;1.40;;;13.70;76.00;;;;;;5109944;28;20645;-69
2023/05/17 12:31:03;;;;;;;2.23;1.30;;;13.70;76.60;;;;;;5109515;28;20659;-69
2023/05/17 12:33:31;;;;;;;2.60;1.50;;;13.80;77.00;;;;;;5110593;28;20627;-70
2023/05/17 12:35:59;;;;;;;2.67;1.60;;;13.90;77.10;;;;;;5110134;28;21025;-69
2023/05/17 12:38:30;;;;;;;3.43;1.87;;;14.50;76.80;;;;;;5110116;28;20628;-70
2023/05/17 12:40:58;;;;;;;2.23;1.37;;;15.10;75.20;;;;;;5109208;27;21054;-69
2023/05/17 12:43:25;;;;;;;2.00;1.37;;;15.30;74.10;;;;;;5109705;28;20717;-69
2023/05/17 12:45:54;;;;;;;1.07;1.00;;;15.40;73.50;;;;;;5110183;28;20999;-69
2023/05/17 12:48:25;;;;;;;0.83;0.83;;;15.70;71.90;;;;;;5110072;28;20706;-70
2023/05/17 12:50:54;;;;;;;0.60;0.60;;;15.80;70.10;;;;;;5108430;28;20646;-70
2023/05/17 12:53:21;;;;;;;1.10;1.00;;;15.60;72.10;;;;;;5109826;28;20629;-70
2023/05/17 12:55:48;;;;;;;1.90;1.40;;;15.50;71.00;;;;;;5109203;28;21218;-70
2023/05/17 12:58:15;;;;;;;2.07;1.50;;;15.30;72.10;;;;;;5109786;28;20679;-70